Time;durP1;ratioP1;P1;durP2;ratioP2;P2;SDS_P1;SDS_P2;PMS_P1;PMS_P2;Temp;Humidity;BMP_temperature;BMP_pressure;BME280_temperature;BME280_humidity;BME280_pressure;Samples;Min_cycle;Max_cycle;Signal;HPM_P1;HPM_P2
2022/04/14 00:00:27;;;;;;;10.80;9.70;;;19.90;52.50;;;;;;5036134;28;20013;-79
2022/04/14 00:02:53;;;;;;;11.35;10.23;;;19.90;52.50;;;;;;5019756;28;20022;-77
2022/04/14 00:05:20;;;;;;;11.77;10.05;;;19.90;52.60;;;;;;5035524;28;20014;-79
2022/04/14 00:07:48;;;;;;;11.20;10.13;;;19.90;53.10;;;;;;5018040;28;20112;-79
2022/04/14 00:10:14;;;;;;;10.55;9.45;;;19.90;52.60;;;;;;5035116;28;20091;-79
2022/04/14 00:12:40;;;;;;;11.07;9.88;;;19.90;52.70;;;;;;5018011;28;20547;-78
2022/04/14 00:15:07;;;;;;;10.90;9.80;;;19.80;52.60;;;;;;5017947;28;20032;-79
2022/04/14 00:17:33;;;;;;;11.40;10.20;;;19.80;52.60;;;;;;5035762;28;20033;-79
2022/04/14 00:20:00;;;;;;;11.05;9.98;;;19.80;52.60;;;;;;5034736;28;20532;-79
2022/04/14 00:22:25;;;;;;;10.93;9.82;;;19.90;52.70;;;;;;5035270;28;20010;-78
2022/04/14 00:24:51;;;;;;;11.10;10.00;;;19.80;52.70;;;;;;5017754;28;20365;-78
2022/04/14 00:27:18;;;;;;;10.65;9.65;;;19.80;52.60;;;;;;5034060;28;20022;-78
2022/04/14 00:29:44;;;;;;;11.55;10.35;;;19.90;52.60;;;;;;5033680;28;20017;-78
2022/04/14 00:32:10;;;;;;;10.35;9.35;;;19.80;52.60;;;;;;5033579;28;20388;-78
2022/04/14 00:34:35;;;;;;;10.88;9.77;;;19.80;52.60;;;;;;5033574;28;20528;-78
2022/04/14 00:37:02;;;;;;;10.35;9.30;;;19.80;52.70;;;;;;5033406;28;20104;-78
2022/04/14 00:39:28;;;;;;;10.95;9.85;;;19.80;52.50;;;;;;5033773;28;20073;-77
2022/04/14 00:41:55;;;;;;;10.85;9.75;;;19.80;52.60;;;;;;5033302;28;20464;-78
2022/04/14 00:44:21;;;;;;;10.80;9.68;;;19.80;52.60;;;;;;5033603;28;20108;-77
2022/04/14 00:46:47;;;;;;;10.75;9.65;;;19.80;52.60;;;;;;5033554;28;20108;-78
2022/04/14 00:49:13;;;;;;;10.57;9.48;;;19.80;52.70;;;;;;5035293;28;20034;-77
2022/04/14 00:51:40;;;;;;;10.77;9.68;;;19.80;52.70;;;;;;5034086;28;20032;-77
2022/04/14 00:54:06;;;;;;;10.45;9.45;;;19.80;52.60;;;;;;5035871;28;20026;-77
2022/04/14 00:56:32;;;;;;;10.77;9.77;;;19.80;52.70;;;;;;5035990;28;20018;-78
2022/04/14 00:58:59;;;;;;;10.93;9.82;;;19.80;52.60;;;;;;5035011;28;20052;-77
2022/04/14 01:01:25;;;;;;;11.18;10.00;;;19.80;52.70;;;;;;5036327;28;20022;-77
2022/04/14 01:03:51;;;;;;;11.15;10.05;;;19.80;52.60;;;;;;5035270;28;20101;-79
2022/04/14 01:06:19;;;;;;;10.82;9.73;;;19.80;52.70;;;;;;5035540;28;20014;-77
2022/04/14 01:09:16;;;;;;;11.15;9.93;;;19.80;52.60;;;;;;5035724;28;20028;-77
2022/04/14 01:11:33;;;;;;;10.63;9.52;;;19.80;52.70;;;;;;5034529;28;20025;-77
2022/04/14 01:13:59;;;;;;;11.23;10.02;;;19.80;52.70;;;;;;5034899;28;20017;-80
2022/04/14 01:16:24;;;;;;;11.80;9.95;;;19.80;52.60;;;;;;5033630;28;20048;-77
2022/04/14 01:18:50;;;;;;;11.05;9.88;;;19.80;52.70;;;;;;5017248;28;20072;-77
2022/04/14 01:21:17;;;;;;;10.40;9.32;;;19.80;52.70;;;;;;5033569;28;20017;-77
2022/04/14 01:23:43;;;;;;;11.00;9.90;;;19.80;52.70;;;;;;5033370;28;20018;-77
2022/04/14 01:26:10;;;;;;;10.88;9.80;;;19.80;52.70;;;;;;5016993;28;20468;-77
2022/04/14 01:28:36;;;;;;;10.80;9.70;;;19.80;52.70;;;;;;5033606;28;20025;-77
2022/04/14 01:31:02;;;;;;;10.75;9.70;;;19.80;52.80;;;;;;5016457;28;20373;-77
2022/04/14 01:33:29;;;;;;;11.55;9.85;;;19.70;52.70;;;;;;5033537;28;20096;-77
2022/04/14 01:35:54;;;;;;;11.05;9.88;;;19.80;52.70;;;;;;5016976;28;20056;-77
2022/04/14 01:38:20;;;;;;;11.40;10.02;;;19.80;52.70;;;;;;5016052;28;20551;-77
2022/04/14 01:40:46;;;;;;;10.80;9.80;;;19.80;52.70;;;;;;5032646;28;20377;-77
2022/04/14 01:43:13;;;;;;;10.38;9.27;;;19.80;52.80;;;;;;5032421;28;20021;-77
2022/04/14 01:45:43;;;;;;;10.35;9.35;;;19.80;52.70;;;;;;5031930;28;20023;-77
2022/04/14 01:48:10;;;;;;;10.25;9.18;;;19.80;52.70;;;;;;5016498;28;20026;-77
2022/04/14 01:50:36;;;;;;;10.70;9.60;;;19.80;52.70;;;;;;5032428;28;20068;-76
2022/04/14 01:53:03;;;;;;;11.27;10.13;;;19.80;52.70;;;;;;5031670;28;20024;-76
2022/04/14 01:55:29;;;;;;;11.05;9.82;;;19.80;52.70;;;;;;5032214;28;20026;-76
2022/04/14 01:57:55;;;;;;;10.27;9.23;;;19.70;52.70;;;;;;5032425;28;20084;-75
2022/04/14 02:00:21;;;;;;;10.70;9.65;;;19.80;52.70;;;;;;5033353;28;20021;-76
2022/04/14 02:02:47;;;;;;;11.40;10.00;;;19.70;52.70;;;;;;5032132;28;20476;-75
2022/04/14 02:05:14;;;;;;;10.65;9.35;;;19.70;52.80;;;;;;5033326;28;20022;-75
2022/04/14 02:07:40;;;;;;;10.30;9.23;;;19.70;52.70;;;;;;5033499;28;20140;-76
2022/04/14 02:10:06;;;;;;;10.70;9.60;;;19.70;52.80;;;;;;5034266;28;20025;-75
2022/04/14 02:12:34;;;;;;;10.93;9.80;;;19.70;52.80;;;;;;5033503;28;20096;-75
2022/04/14 02:15:00;;;;;;;10.82;9.80;;;19.70;52.80;;;;;;5016561;28;20017;-76
2022/04/14 02:17:27;;;;;;;10.90;9.80;;;19.70;52.80;;;;;;5033628;28;20038;-75
2022/04/14 02:19:54;;;;;;;10.63;9.52;;;19.70;52.80;;;;;;5033695;28;20064;-75
2022/04/14 02:22:19;;;;;;;10.95;9.85;;;19.70;52.80;;;;;;5033499;28;20013;-76
2022/04/14 02:24:46;;;;;;;10.40;9.35;;;19.70;52.80;;;;;;5037467;28;20021;-76
2022/04/14 02:27:12;;;;;;;11.15;9.98;;;19.70;52.80;;;;;;5035733;28;20026;-76
2022/04/14 02:29:38;;;;;;;10.98;9.90;;;19.70;52.80;;;;;;5033835;28;20038;-77
2022/04/14 02:32:05;;;;;;;9.85;8.85;;;19.70;52.80;;;;;;5033813;28;20029;-76
2022/04/14 02:34:31;;;;;;;11.05;9.88;;;19.70;52.80;;;;;;5017147;28;20021;-77
2022/04/14 02:36:57;;;;;;;10.70;9.60;;;19.70;52.80;;;;;;5033553;28;20075;-75
2022/04/14 02:39:23;;;;;;;10.52;9.48;;;19.70;52.80;;;;;;5034182;28;20109;-75
2022/04/14 02:41:49;;;;;;;10.20;9.20;;;19.70;52.90;;;;;;5034075;28;20014;-75
2022/04/14 02:44:16;;;;;;;10.40;9.40;;;19.70;52.80;;;;;;5034177;28;20030;-76
2022/04/14 02:46:43;;;;;;;10.10;9.10;;;19.70;52.80;;;;;;5033409;28;20091;-76
2022/04/14 02:49:09;;;;;;;10.43;9.35;;;19.70;52.80;;;;;;5034108;28;20481;-76
2022/04/14 02:51:34;;;;;;;10.10;9.10;;;19.60;52.80;;;;;;5033983;28;20033;-75
2022/04/14 02:54:01;;;;;;;10.98;9.63;;;19.60;52.70;;;;;;5034219;28;20034;-76
2022/04/14 02:56:28;;;;;;;10.82;9.63;;;19.70;52.90;;;;;;5033692;28;20026;-76
2022/04/14 02:58:55;;;;;;;10.43;9.43;;;19.60;52.90;;;;;;5034860;28;20519;-76
2022/04/14 03:01:21;;;;;;;9.85;8.85;;;19.70;52.90;;;;;;5036195;28;20093;-76
2022/04/14 03:03:47;;;;;;;10.75;9.68;;;19.60;52.90;;;;;;5034925;28;20056;-76
2022/04/14 03:06:13;;;;;;;10.52;9.43;;;19.70;52.90;;;;;;5035738;28;20033;-76
2022/04/14 03:08:39;;;;;;;10.93;9.50;;;19.70;52.90;;;;;;5039044;28;20388;-76
2022/04/14 03:11:05;;;;;;;10.32;9.32;;;19.60;52.80;;;;;;5041260;28;20091;-76
2022/04/14 03:13:32;;;;;;;10.23;9.07;;;19.60;53.40;;;;;;5023859;28;20018;-76
2022/04/14 03:15:58;;;;;;;10.10;9.10;;;19.60;52.90;;;;;;5041509;28;20045;-77
2022/04/14 03:18:25;;;;;;;9.63;8.63;;;19.60;52.90;;;;;;5041296;28;20034;-75
2022/04/14 03:20:51;;;;;;;10.52;9.43;;;19.60;53.00;;;;;;5040532;28;20044;-77
2022/04/14 03:23:17;;;;;;;11.35;9.80;;;19.60;53.10;;;;;;5040425;28;20029;-76
2022/04/14 03:25:44;;;;;;;10.27;9.27;;;19.60;53.00;;;;;;5022328;28;20396;-76
2022/04/14 03:28:10;;;;;;;9.80;8.80;;;19.60;53.00;;;;;;5022618;28;20047;-76
2022/04/14 03:30:36;;;;;;;10.10;9.05;;;19.60;53.10;;;;;;5038965;28;20044;-76
2022/04/14 03:33:02;;;;;;;10.75;9.45;;;19.60;53.10;;;;;;5023924;28;20017;-75
2022/04/14 03:35:28;;;;;;;10.40;9.40;;;19.60;53.60;;;;;;5038882;28;20066;-77
2022/04/14 03:37:54;;;;;;;10.40;9.35;;;19.60;53.10;;;;;;5040014;28;20025;-77
2022/04/14 03:40:20;;;;;;;10.45;9.43;;;19.60;53.00;;;;;;5041639;28;20069;-76
2022/04/14 03:42:46;;;;;;;11.30;9.52;;;19.60;53.00;;;;;;5040048;28;20056;-77
2022/04/14 03:45:12;;;;;;;10.75;9.65;;;19.60;53.00;;;;;;5045908;28;20021;-76
2022/04/14 03:47:38;;;;;;;10.10;9.10;;;19.60;53.00;;;;;;5046114;28;20025;-75
2022/04/14 03:50:05;;;;;;;11.23;9.27;;;19.60;53.00;;;;;;5045968;28;20029;-75
2022/04/14 03:52:31;;;;;;;10.02;9.02;;;19.60;53.10;;;;;;5049881;28;20028;-76
2022/04/14 03:54:57;;;;;;;10.60;9.38;;;19.60;53.00;;;;;;5059739;28;20037;-76
2022/04/14 03:57:24;;;;;;;10.50;9.40;;;19.60;53.10;;;;;;5042805;28;20033;-76
2022/04/14 03:59:50;;;;;;;9.98;8.98;;;19.60;53.10;;;;;;5058925;28;20080;-76
2022/04/14 04:02:16;;;;;;;10.18;9.18;;;19.60;53.00;;;;;;5059238;28;20006;-76
2022/04/14 04:04:42;;;;;;;10.07;9.07;;;19.60;53.10;;;;;;5042823;28;20063;-78
2022/04/14 04:07:08;;;;;;;10.77;9.68;;;19.60;53.10;;;;;;5059159;28;20021;-77
2022/04/14 04:09:35;;;;;;;10.50;9.25;;;19.60;53.20;;;;;;5059910;28;20022;-76
2022/04/14 04:12:01;;;;;;;9.70;8.80;;;19.50;53.10;;;;;;5060321;28;20036;-77
2022/04/14 04:14:27;;;;;;;10.60;9.50;;;19.50;53.10;;;;;;5059929;28;20013;-77
2022/04/14 04:16:54;;;;;;;10.48;9.20;;;19.50;53.00;;;;;;5059796;28;20060;-77
2022/04/14 04:19:19;;;;;;;9.60;8.70;;;19.50;53.10;;;;;;5042698;28;20029;-77
2022/04/14 04:21:46;;;;;;;9.63;8.65;;;19.50;53.00;;;;;;5060139;28;20024;-77
2022/04/14 04:24:13;;;;;;;10.38;9.27;;;19.50;53.00;;;;;;5059733;28;20029;-78
2022/04/14 04:26:38;;;;;;;9.95;8.90;;;19.50;53.00;;;;;;5059664;28;20037;-77
2022/04/14 04:29:05;;;;;;;9.68;8.68;;;19.50;53.10;;;;;;5059553;28;20033;-77
2022/04/14 04:31:32;;;;;;;9.52;8.52;;;19.50;53.10;;;;;;5060025;28;20037;-77
2022/04/14 04:33:57;;;;;;;9.52;8.63;;;19.50;53.10;;;;;;5059978;28;20018;-77
2022/04/14 04:36:24;;;;;;;10.40;9.30;;;19.50;53.00;;;;;;5059432;28;20006;-76
2022/04/14 04:38:50;;;;;;;10.35;9.20;;;19.50;53.00;;;;;;5042649;28;20056;-77
2022/04/14 04:41:16;;;;;;;10.50;9.32;;;19.50;53.10;;;;;;5059830;28;20013;-77
2022/04/14 04:43:42;;;;;;;10.25;8.95;;;19.50;53.10;;;;;;5059448;28;20017;-77
2022/04/14 04:46:08;;;;;;;10.13;9.02;;;19.50;53.00;;;;;;5042868;28;20021;-77
2022/04/14 04:48:37;;;;;;;9.35;8.45;;;19.50;53.10;;;;;;5059277;28;20036;-77
2022/04/14 04:51:02;;;;;;;9.95;8.57;;;19.50;53.10;;;;;;5059538;28;20097;-77
2022/04/14 04:53:29;;;;;;;10.23;9.10;;;19.40;53.00;;;;;;5047606;28;20079;-77
2022/04/14 04:55:56;;;;;;;9.60;8.60;;;19.50;53.00;;;;;;5041595;28;20016;-78
2022/04/14 04:58:22;;;;;;;9.75;8.75;;;19.50;53.00;;;;;;5041599;28;20022;-79
2022/04/14 05:00:48;;;;;;;9.65;8.68;;;19.50;53.00;;;;;;5038953;28;20091;-78
2022/04/14 05:03:14;;;;;;;10.18;9.13;;;19.50;53.00;;;;;;5039811;28;20029;-77
2022/04/14 05:05:43;;;;;;;10.27;9.27;;;19.50;53.00;;;;;;5039010;28;20022;-77
2022/04/14 05:08:09;;;;;;;9.90;8.90;;;19.50;52.90;;;;;;5037699;28;20029;-77
2022/04/14 05:10:36;;;;;;;9.73;8.73;;;19.50;52.80;;;;;;5042936;28;20045;-78
2022/04/14 05:13:02;;;;;;;9.77;8.75;;;19.50;52.90;;;;;;5045380;28;20017;-78
2022/04/14 05:15:28;;;;;;;9.75;8.75;;;19.50;52.90;;;;;;5044994;28;20064;-75
2022/04/14 05:17:55;;;;;;;14.60;9.38;;;19.40;52.90;;;;;;5044312;28;20033;-77
2022/04/14 05:20:21;;;;;;;9.18;8.27;;;19.40;52.80;;;;;;5052760;28;20020;-78
2022/04/14 05:22:48;;;;;;;9.07;8.18;;;19.50;52.90;;;;;;5053460;28;19997;-77
2022/04/14 05:25:14;;;;;;;9.38;8.43;;;19.40;52.90;;;;;;5055846;28;20031;-77
2022/04/14 05:27:42;;;;;;;9.70;8.70;;;19.50;52.80;;;;;;5048237;28;20511;-77
2022/04/14 05:30:08;;;;;;;9.68;8.68;;;19.50;52.70;;;;;;5046670;28;20018;-76
2022/04/14 05:32:34;;;;;;;9.48;8.57;;;19.50;52.60;;;;;;5051933;28;19993;-77
2022/04/14 05:35:00;;;;;;;9.20;8.27;;;19.50;52.40;;;;;;5051610;28;20539;-77
2022/04/14 05:37:26;;;;;;;9.07;8.13;;;19.60;52.40;;;;;;5050656;28;20032;-78
2022/04/14 05:39:52;;;;;;;8.38;7.57;;;19.60;52.00;;;;;;5050699;28;20022;-77
2022/04/14 05:42:17;;;;;;;8.93;8.00;;;19.70;51.90;;;;;;5051073;28;20022;-77
2022/04/14 05:44:43;;;;;;;9.10;8.18;;;19.80;51.60;;;;;;5049656;28;20480;-77
2022/04/14 05:47:09;;;;;;;9.38;8.48;;;19.80;51.60;;;;;;5052387;28;20048;-77
2022/04/14 05:49:35;;;;;;;9.90;8.18;;;20.00;51.40;;;;;;5052809;28;20009;-78
2022/04/14 05:52:01;;;;;;;8.23;7.43;;;20.20;50.90;;;;;;5037159;28;20020;-77
2022/04/14 05:54:27;;;;;;;9.00;8.10;;;20.40;50.20;;;;;;5049475;28;20052;-78
2022/04/14 05:56:53;;;;;;;8.30;7.50;;;20.70;49.60;;;;;;5050394;28;20025;-78
2022/04/14 05:59:18;;;;;;;8.23;7.43;;;20.90;49.00;;;;;;5051226;28;20030;-78
2022/04/14 06:01:44;;;;;;;7.70;7.00;;;21.10;48.40;;;;;;5036175;28;20104;-76
2022/04/14 06:04:11;;;;;;;8.38;7.45;;;21.30;47.80;;;;;;5050962;28;20016;-77
2022/04/14 06:06:36;;;;;;;7.82;7.03;;;21.50;47.30;;;;;;5050143;28;20030;-76
2022/04/14 06:09:02;;;;;;;7.93;7.13;;;21.70;46.80;;;;;;5050306;28;20052;-76
2022/04/14 06:11:28;;;;;;;8.10;7.30;;;21.90;46.20;;;;;;5034947;28;20018;-77
2022/04/14 06:13:54;;;;;;;7.78;7.00;;;22.10;45.80;;;;;;5045440;28;20024;-77
2022/04/14 06:16:20;;;;;;;7.97;7.18;;;22.30;45.30;;;;;;5043007;28;20140;-78
2022/04/14 06:18:46;;;;;;;6.97;6.28;;;22.40;44.90;;;;;;5027238;28;20397;-76
2022/04/14 06:21:12;;;;;;;7.47;6.75;;;22.60;44.40;;;;;;5041643;28;20021;-76
2022/04/14 06:23:46;;;;;;;7.80;7.00;;;22.80;44.00;;;;;;5034196;28;20016;-78
2022/04/14 06:26:12;;;;;;;7.30;6.60;;;23.00;43.60;;;;;;5033059;28;20031;-77
2022/04/14 06:28:39;;;;;;;7.00;6.30;;;23.10;43.20;;;;;;5031610;28;20034;-77
2022/04/14 06:31:05;;;;;;;7.45;6.75;;;23.30;42.90;;;;;;5015229;28;20116;-78
2022/04/14 06:33:31;;;;;;;7.28;6.57;;;23.40;42.50;;;;;;5031907;28;20029;-76
2022/04/14 06:36:00;;;;;;;7.18;6.47;;;23.60;42.20;;;;;;5031408;28;20024;-76
2022/04/14 06:38:27;;;;;;;7.25;6.55;;;23.70;41.90;;;;;;5031524;28;20488;-76
2022/04/14 06:40:53;;;;;;;6.75;6.10;;;23.80;41.60;;;;;;5032042;28;20025;-78
2022/04/14 06:43:19;;;;;;;6.97;6.25;;;23.90;41.40;;;;;;5017226;28;20560;-77
2022/04/14 06:45:45;;;;;;;6.72;6.03;;;24.00;41.20;;;;;;5036361;28;20018;-77
2022/04/14 06:48:11;;;;;;;6.55;5.95;;;24.10;41.10;;;;;;5035919;28;20021;-77
2022/04/14 06:50:37;;;;;;;6.68;6.07;;;24.20;40.80;;;;;;5035861;28;20041;-77
2022/04/14 06:53:03;;;;;;;6.78;6.18;;;24.30;40.50;;;;;;5035369;28;20468;-76
2022/04/14 06:55:29;;;;;;;6.68;6.00;;;24.40;40.30;;;;;;5035177;28;20026;-76
2022/04/14 06:57:57;;;;;;;6.47;5.88;;;24.40;40.10;;;;;;5035377;28;20101;-77
2022/04/14 07:00:23;;;;;;;6.30;5.70;;;24.50;40.00;;;;;;5035446;28;20014;-75
2022/04/14 07:02:52;;;;;;;6.28;5.68;;;24.60;39.80;;;;;;5035404;28;20013;-77
2022/04/14 07:05:19;;;;;;;6.35;5.75;;;24.70;39.60;;;;;;5035233;28;20010;-75
2022/04/14 07:07:45;;;;;;;6.75;6.05;;;24.80;39.50;;;;;;5035294;28;20026;-75
2022/04/14 07:10:12;;;;;;;6.07;5.47;;;24.80;39.20;;;;;;5034995;28;20014;-76
2022/04/14 07:12:38;;;;;;;6.38;5.78;;;24.90;39.10;;;;;;5018606;28;20017;-75
2022/04/14 07:15:05;;;;;;;6.43;5.72;;;25.00;39.00;;;;;;5018432;28;20189;-75
2022/04/14 07:17:32;;;;;;;6.20;5.60;;;25.10;38.80;;;;;;5035143;28;20138;-76
2022/04/14 07:19:58;;;;;;;6.53;5.57;;;25.20;38.60;;;;;;5036404;28;20013;-76
2022/04/14 07:22:24;;;;;;;6.00;5.40;;;25.30;38.50;;;;;;5018956;28;20072;-76
2022/04/14 07:24:50;;;;;;;6.10;5.50;;;25.30;38.40;;;;;;5035875;28;20024;-76
2022/04/14 07:27:19;;;;;;;6.25;5.65;;;25.30;38.10;;;;;;5034905;28;20025;-76
2022/04/14 07:29:48;;;;;;;5.63;5.03;;;25.40;38.10;;;;;;5034531;28;20016;-76
2022/04/14 07:32:14;;;;;;;5.90;5.30;;;25.50;38.00;;;;;;5035090;28;20030;-76
2022/04/14 07:34:40;;;;;;;5.30;4.80;;;25.60;37.70;;;;;;5034683;28;20518;-76
2022/04/14 07:37:07;;;;;;;5.60;5.03;;;25.70;37.70;;;;;;5035141;28;20037;-76
2022/04/14 07:39:32;;;;;;;5.20;4.70;;;25.70;37.60;;;;;;5037103;28;20056;-81
2022/04/14 07:41:59;;;;;;;6.93;5.30;;;25.80;37.40;;;;;;5036013;28;20157;-80
2022/04/14 07:44:26;;;;;;;5.30;4.80;;;25.90;37.30;;;;;;5035379;28;20068;-80
2022/04/14 07:46:52;;;;;;;5.80;5.20;;;25.90;37.10;;;;;;5036305;28;20029;-79
2022/04/14 07:49:18;;;;;;;7.72;4.80;;;26.00;37.10;;;;;;5019461;28;20013;-80
2022/04/14 07:51:44;;;;;;;6.80;5.03;;;26.00;37.00;;;;;;5037004;28;20025;-80
2022/04/14 07:54:10;;;;;;;6.97;4.90;;;26.10;36.90;;;;;;5034364;28;20390;-80
2022/04/14 07:56:38;;;;;;;6.03;4.95;;;26.10;36.80;;;;;;5035654;28;20034;-80
2022/04/14 07:59:05;;;;;;;8.68;4.70;;;26.20;36.70;;;;;;5035854;28;20484;-80
2022/04/14 08:01:33;;;;;;;6.72;4.63;;;26.20;36.60;;;;;;5036148;28;20017;-80
2022/04/14 08:04:00;;;;;;;6.20;4.43;;;26.20;36.50;;;;;;5018211;28;20028;-80
2022/04/14 08:06:27;;;;;;;5.97;4.72;;;26.30;36.50;;;;;;5034556;28;20105;-80
2022/04/14 08:08:54;;;;;;;8.27;4.72;;;26.40;37.00;;;;;;5034843;28;20472;-80
2022/04/14 08:11:20;;;;;;;9.90;4.60;;;26.40;36.30;;;;;;5036156;28;20092;-79
2022/04/14 08:13:46;;;;;;;7.43;4.78;;;26.40;36.20;;;;;;5035345;28;20021;-80
2022/04/14 08:16:12;;;;;;;6.90;4.40;;;26.50;36.10;;;;;;5018446;28;20157;-80
2022/04/14 08:18:39;;;;;;;9.07;5.03;;;26.50;36.10;;;;;;5034750;28;20033;-79
2022/04/14 08:21:06;;;;;;;8.10;4.60;;;26.50;36.10;;;;;;5035230;28;20002;-79
2022/04/14 08:23:38;;;;;;;8.88;5.63;;;26.50;35.90;;;;;;5034977;28;20044;-79
2022/04/14 08:26:11;;;;;;;12.18;5.30;;;26.50;35.90;;;;;;5018736;28;20044;-79
2022/04/14 08:28:41;;;;;;;10.57;5.40;;;26.60;36.00;;;;;;5034227;28;20044;-80
2022/04/14 08:31:10;;;;;;;9.43;5.30;;;26.50;36.00;;;;;;5035188;28;20036;-79
2022/04/14 08:33:37;;;;;;;12.75;5.45;;;26.60;36.00;;;;;;5034232;28;20025;-80
2022/04/14 08:36:04;;;;;;;11.18;5.22;;;26.60;36.00;;;;;;5035638;28;20014;-80
2022/04/14 08:38:30;;;;;;;9.50;5.22;;;26.60;36.00;;;;;;5034337;28;20652;-79
2022/04/14 08:41:00;;;;;;;13.05;5.45;;;26.60;35.90;;;;;;5017928;28;20073;-80
2022/04/14 08:43:35;;;;;;;17.52;5.72;;;26.60;35.90;;;;;;5034315;28;20021;-79
2022/04/14 08:46:06;;;;;;;10.85;5.30;;;26.70;35.90;;;;;;5033814;28;20016;-80
2022/04/14 08:48:32;;;;;;;14.63;5.72;;;26.70;35.90;;;;;;5018086;28;20030;-80
2022/04/14 08:50:59;;;;;;;14.30;5.18;;;26.70;35.70;;;;;;5034378;28;20044;-79
2022/04/14 08:53:25;;;;;;;13.20;6.10;;;26.80;35.70;;;;;;5033579;28;20021;-78
2022/04/14 08:55:51;;;;;;;13.00;5.65;;;26.80;35.70;;;;;;5033229;28;20025;-79
2022/04/14 08:58:26;;;;;;;13.63;5.97;;;26.80;35.60;;;;;;5033015;28;20034;-81
2022/04/14 09:00:52;;;;;;;14.57;5.70;;;26.80;35.50;;;;;;5018264;28;20020;-82
2022/04/14 09:03:18;;;;;;;16.88;5.70;;;26.80;35.60;;;;;;5033996;28;20025;-81
2022/04/14 09:05:45;;;;;;;14.07;5.30;;;26.80;35.60;;;;;;5035277;28;20052;-81
2022/04/14 09:08:11;;;;;;;10.68;5.25;;;26.80;35.50;;;;;;5034831;28;20373;-81
2022/04/14 09:10:37;;;;;;;13.77;4.90;;;26.90;35.40;;;;;;5033028;28;20010;-81
2022/04/14 09:13:03;;;;;;;14.18;5.65;;;26.90;35.40;;;;;;5033120;28;20036;-81
2022/04/14 09:15:29;;;;;;;12.07;5.60;;;27.00;35.40;;;;;;5032931;28;20619;-81
2022/04/14 09:17:55;;;;;;;15.20;6.60;;;26.90;35.30;;;;;;5033306;28;20029;-81
2022/04/14 09:20:37;;;;;;;14.32;5.80;;;27.00;35.30;;;;;;5033091;28;20492;-80
2022/04/14 09:23:27;;;;;;;11.52;5.72;;;27.00;35.30;;;;;;5032975;28;20140;-80
2022/04/14 09:26:11;;;;;;;14.98;5.45;;;27.00;35.30;;;;;;5033253;28;20020;-80
2022/04/14 09:28:37;;;;;;;15.77;5.68;;;27.00;35.30;;;;;;5017280;28;20017;-80
2022/04/14 09:31:05;;;;;;;14.25;6.07;;;27.00;35.30;;;;;;5032874;28;20014;-80
2022/04/14 09:33:31;;;;;;;15.65;5.68;;;27.00;35.30;;;;;;5033100;28;20384;-80
2022/04/14 09:36:04;;;;;;;17.00;5.45;;;27.00;35.30;;;;;;5033356;28;20028;-81
2022/04/14 09:38:33;;;;;;;15.48;5.82;;;27.00;35.20;;;;;;5033985;28;20171;-80
2022/04/14 09:40:58;;;;;;;20.75;6.32;;;27.00;35.20;;;;;;5032676;28;20017;-78
2022/04/14 09:43:26;;;;;;;13.98;5.60;;;27.00;35.40;;;;;;5016167;28;20029;-80
2022/04/14 09:45:53;;;;;;;15.73;5.65;;;27.00;35.30;;;;;;5033139;28;20480;-79
2022/04/14 09:48:22;;;;;;;16.63;5.75;;;26.90;35.40;;;;;;5032961;28;20434;-79
2022/04/14 09:50:49;;;;;;;14.98;6.00;;;26.80;35.50;;;;;;5017419;28;20464;-78
2022/04/14 09:53:16;;;;;;;14.38;5.60;;;26.70;35.60;;;;;;5016845;28;20025;-79
2022/04/14 09:55:54;;;;;;;13.85;5.35;;;26.70;35.80;;;;;;5033267;28;20082;-79
2022/04/14 09:58:22;;;;;;;15.80;5.90;;;26.60;35.90;;;;;;5033333;28;20022;-80
2022/04/14 10:00:55;;;;;;;17.73;5.65;;;26.60;36.00;;;;;;5032344;28;20026;-78
2022/04/14 10:03:24;;;;;;;13.60;5.90;;;26.50;36.10;;;;;;5017262;28;20492;-80
2022/04/14 10:05:51;;;;;;;16.63;5.70;;;26.40;36.00;;;;;;5033153;28;20021;-78
2022/04/14 10:08:17;;;;;;;17.23;7.03;;;26.40;36.20;;;;;;5033721;28;20067;-79
2022/04/14 10:10:47;;;;;;;12.48;5.90;;;26.30;36.30;;;;;;5033589;28;20043;-79
2022/04/14 10:13:15;;;;;;;13.35;6.15;;;26.20;36.50;;;;;;5033584;28;20022;-78
2022/04/14 10:15:45;;;;;;;13.80;6.10;;;26.10;36.70;;;;;;5016597;28;20038;-78
2022/04/14 10:18:15;;;;;;;11.68;5.50;;;26.00;36.80;;;;;;5034527;28;20044;-79
2022/04/14 10:20:44;;;;;;;;;;;26.00;36.90;;;;;;5037275;28;20032;-79
2022/04/14 10:23:13;;;;;;;13.95;6.20;;;26.00;37.00;;;;;;5023777;28;19901;-80
2022/04/14 10:25:39;;;;;;;13.73;5.57;;;26.00;37.00;;;;;;5041066;28;20079;-79
2022/04/14 10:28:15;;;;;;;14.10;5.70;;;26.00;37.00;;;;;;5042424;28;20022;-79
2022/04/14 10:30:49;;;;;;;13.82;5.78;;;25.90;37.10;;;;;;5040593;28;20018;-79
2022/04/14 10:33:14;;;;;;;15.07;6.18;;;25.90;37.10;;;;;;5040564;28;20097;-78
2022/04/14 10:35:40;;;;;;;15.85;6.18;;;25.80;37.10;;;;;;5040364;28;20049;-79
2022/04/14 10:38:22;;;;;;;16.60;6.00;;;25.70;37.80;;;;;;5024702;28;20428;-78
2022/04/14 10:40:49;;;;;;;14.18;6.00;;;25.70;37.50;;;;;;5037064;28;20029;-78
2022/04/14 10:43:18;;;;;;;15.25;6.15;;;25.70;37.60;;;;;;5021018;28;20009;-80
2022/04/14 10:45:55;;;;;;;11.35;5.95;;;25.70;37.60;;;;;;5038298;28;20019;-78
2022/04/14 10:48:34;;;;;;;13.02;5.55;;;25.70;37.50;;;;;;5038758;28;20029;-77
2022/04/14 10:51:19;;;;;;;15.85;6.30;;;25.70;37.60;;;;;;5038976;28;20017;-79
2022/04/14 10:54:11;;;;;;;14.25;5.85;;;25.60;37.50;;;;;;5041975;28;20100;-80
2022/04/14 10:56:38;;;;;;;12.20;5.15;;;25.60;37.60;;;;;;5038562;28;20115;-80
2022/04/14 10:59:05;;;;;;;12.77;5.60;;;25.60;37.60;;;;;;5041892;28;20021;-79
2022/04/14 11:01:50;;;;;;;13.13;5.78;;;25.50;37.80;;;;;;5039501;28;20120;-78
2022/04/14 11:04:35;;;;;;;15.85;5.53;;;25.50;37.80;;;;;;5040902;28;20010;-80
2022/04/14 11:07:13;;;;;;;13.88;5.85;;;25.40;38.00;;;;;;5041765;28;20384;-78
2022/04/14 11:09:42;;;;;;;15.20;5.72;;;25.30;38.10;;;;;;5040497;28;20021;-77
2022/04/14 11:12:51;;;;;;;11.68;4.90;;;25.20;38.10;;;;;;5040310;28;20079;-80
2022/04/14 11:15:32;;;;;;;13.88;5.40;;;25.20;38.40;;;;;;5031860;28;20045;-80
2022/04/14 11:18:04;;;;;;;12.43;5.03;;;25.00;38.50;;;;;;5038714;28;20036;-79
2022/04/14 11:20:37;;;;;;;13.90;5.75;;;25.00;38.70;;;;;;5038715;28;20063;-78
2022/04/14 11:23:06;;;;;;;13.93;5.55;;;24.90;38.90;;;;;;5040634;28;20543;-77
2022/04/14 11:26:06;;;;;;;12.25;5.30;;;24.80;39.00;;;;;;5039884;28;20018;-78
2022/04/14 11:28:40;;;;;;;12.93;5.50;;;24.80;39.20;;;;;;5038954;28;20059;-77
2022/04/14 11:31:18;;;;;;;15.52;6.15;;;24.70;39.30;;;;;;5038971;28;20018;-77
2022/04/14 11:33:45;;;;;;;12.50;5.57;;;24.60;39.50;;;;;;5038714;28;20030;-76
2022/04/14 11:36:16;;;;;;;13.20;5.60;;;24.50;39.50;;;;;;5038695;28;20018;-78
2022/04/14 11:38:52;;;;;;;13.88;5.65;;;24.50;39.80;;;;;;5039055;28;20033;-76
2022/04/14 11:41:44;;;;;;;12.57;5.55;;;24.40;39.80;;;;;;5039022;28;20014;-76
2022/04/14 11:44:21;;;;;;;10.85;5.65;;;24.40;40.00;;;;;;5038723;28;20013;-76
2022/04/14 11:46:50;;;;;;;11.52;5.20;;;24.30;40.00;;;;;;5039014;28;20029;-77
2022/04/14 11:49:27;;;;;;;9.35;5.10;;;24.30;40.20;;;;;;5039150;28;20013;-76
2022/04/14 11:51:55;;;;;;;11.52;5.38;;;24.20;40.20;;;;;;5040150;28;20030;-76
2022/04/14 11:54:27;;;;;;;13.95;5.75;;;24.20;40.40;;;;;;5040709;28;20017;-77
2022/04/14 11:56:55;;;;;;;15.05;5.60;;;24.10;40.40;;;;;;5042992;28;20057;-77
2022/04/14 11:59:34;;;;;;;11.57;5.28;;;24.10;40.50;;;;;;5040929;28;20029;-78
2022/04/14 12:02:06;;;;;;;13.45;5.10;;;24.10;40.60;;;;;;5041068;28;20021;-76
2022/04/14 12:04:40;;;;;;;10.77;5.35;;;24.10;40.70;;;;;;5039686;28;20060;-77
2022/04/14 12:07:06;;;;;;;10.02;4.93;;;24.10;40.70;;;;;;5037912;28;20018;-74
2022/04/14 12:09:33;;;;;;;12.70;5.13;;;24.10;40.70;;;;;;5034332;28;20022;-75
2022/04/14 12:12:18;;;;;;;9.57;4.95;;;24.10;40.70;;;;;;5034468;28;20092;-75
2022/04/14 12:14:48;;;;;;;14.73;5.78;;;24.00;40.80;;;;;;5034201;28;20036;-75
2022/04/14 12:17:22;;;;;;;9.05;5.28;;;24.00;40.80;;;;;;5033863;28;20076;-76
2022/04/14 12:20:08;;;;;;;12.43;5.38;;;23.90;40.90;;;;;;5034151;28;20055;-76
2022/04/14 12:22:35;;;;;;;12.05;5.15;;;23.90;40.90;;;;;;5035040;28;20048;-75
2022/04/14 12:25:02;;;;;;;12.50;5.63;;;23.90;41.00;;;;;;5018326;28;20163;-76
2022/04/14 12:27:34;;;;;;;12.35;5.85;;;23.80;41.00;;;;;;5034953;28;20018;-76
2022/04/14 12:30:20;;;;;;;8.93;5.13;;;23.80;41.10;;;;;;5034413;28;20021;-76
2022/04/14 12:32:47;;;;;;;13.05;5.80;;;23.80;41.20;;;;;;5018186;28;20091;-76
2022/04/14 12:35:30;;;;;;;11.10;5.65;;;23.80;41.30;;;;;;5035186;28;20048;-76
2022/04/14 12:38:06;;;;;;;12.05;5.13;;;23.80;41.30;;;;;;5034888;28;20025;-76
2022/04/14 12:40:32;;;;;;;10.77;5.68;;;23.70;41.30;;;;;;5033502;28;20028;-77
2022/04/14 12:42:58;;;;;;;10.77;5.47;;;23.70;41.40;;;;;;5034067;28;20037;-76
2022/04/14 12:45:24;;;;;;;10.35;5.68;;;23.70;41.40;;;;;;5033859;28;20508;-76